createdAt,value
2019-03-09T00:00:48.633Z,4.30
2019-03-09T00:03:18.940Z,4.47
2019-03-09T00:05:49.245Z,4.07
2019-03-09T00:08:19.529Z,4.10
2019-03-09T00:10:49.933Z,3.70
2019-03-09T00:13:20.006Z,3.62
2019-03-09T00:15:50.188Z,3.37
2019-03-09T00:18:20.535Z,3.40
2019-03-09T00:20:50.917Z,3.10
2019-03-09T00:23:33.729Z,3.35
2019-03-09T00:26:24.455Z,3.33
2019-03-09T00:29:03.305Z,3.25
2019-03-09T00:31:40.779Z,3.80
2019-03-09T00:34:10.841Z,3.17
2019-03-09T00:36:41.145Z,4.10
2019-03-09T00:39:11.803Z,3.12
2019-03-09T00:41:42.197Z,3.87
2019-03-09T00:44:12.532Z,4.30
2019-03-09T00:46:42.717Z,3.77
2019-03-09T00:49:12.790Z,4.37
2019-03-09T00:51:43.046Z,4.57
2019-03-09T00:54:15.122Z,4.60
2019-03-09T00:56:45.700Z,4.27
2019-03-09T00:59:15.979Z,4.50
2019-03-09T01:01:46.180Z,4.67
2019-03-09T01:04:16.344Z,4.83
2019-03-09T01:06:46.468Z,4.77
2019-03-09T01:09:16.820Z,5.67
2019-03-09T01:11:47.797Z,5.77
2019-03-09T01:14:17.890Z,5.97
2019-03-09T01:16:48.367Z,6.13
2019-03-09T01:19:18.533Z,6.47
2019-03-09T01:21:48.753Z,5.77
2019-03-09T01:24:19.035Z,7.10
2019-03-09T01:26:49.331Z,7.23
2019-03-09T01:29:19.785Z,8.28
2019-03-09T01:31:50.053Z,7.73
2019-03-09T01:34:20.280Z,8.30
2019-03-09T01:36:50.569Z,7.87
2019-03-09T01:39:20.723Z,9.97
2019-03-09T01:41:51.303Z,10.10
2019-03-09T01:44:21.453Z,9.83
2019-03-09T01:46:51.648Z,9.80
2019-03-09T01:49:21.739Z,9.98
2019-03-09T01:51:52.190Z,11.08
2019-03-09T01:54:22.504Z,10.25
2019-03-09T01:56:52.927Z,8.80
2019-03-09T01:59:23.185Z,9.67
2019-03-09T02:01:53.403Z,10.77
2019-03-09T02:04:23.447Z,11.50
2019-03-09T02:06:53.876Z,10.80
2019-03-09T02:09:24.490Z,10.18
2019-03-09T02:11:54.929Z,10.63
2019-03-09T02:14:25.402Z,12.53
2019-03-09T02:16:55.693Z,11.57
2019-03-09T02:19:26.210Z,10.10
2019-03-09T02:21:56.571Z,11.33
2019-03-09T02:24:26.902Z,11.57
2019-03-09T02:26:57.183Z,6.77
2019-03-09T02:29:27.406Z,9.87
2019-03-09T02:31:57.613Z,8.53
2019-03-09T02:34:27.828Z,12.13
2019-03-09T02:36:58.092Z,10.30
2019-03-09T02:39:36.346Z,8.93
2019-03-09T02:42:06.781Z,9.67
2019-03-09T02:44:37.205Z,11.17
2019-03-09T02:47:07.420Z,11.30
2019-03-09T02:49:37.743Z,12.23
2019-03-09T02:52:08.367Z,11.43
2019-03-09T02:54:38.691Z,10.30
2019-03-09T02:57:08.971Z,9.43
2019-03-09T02:59:39.407Z,10.83
2019-03-09T03:02:25.788Z,10.67
2019-03-09T03:04:56.197Z,8.63
2019-03-09T03:07:26.361Z,11.00
2019-03-09T03:09:56.843Z,8.87
2019-03-09T03:12:26.971Z,8.97
2019-03-09T03:14:57.233Z,9.30
2019-03-09T03:17:27.784Z,8.60
2019-03-09T03:19:57.946Z,7.33
2019-03-09T03:22:28.350Z,7.83
2019-03-09T03:24:58.681Z,6.60
2019-03-09T03:27:29.155Z,7.70
2019-03-09T03:29:59.345Z,6.53
2019-03-09T03:32:33.636Z,7.43
2019-03-09T03:35:04.321Z,5.50
2019-03-09T03:37:34.578Z,6.30
2019-03-09T03:40:05.862Z,5.80
2019-03-09T03:42:36.249Z,6.20
2019-03-09T03:45:07.390Z,6.05
2019-03-09T03:47:37.677Z,5.10
2019-03-09T03:50:07.960Z,5.00
2019-03-09T03:52:38.335Z,4.47
2019-03-09T03:55:08.828Z,5.00
2019-03-09T03:57:38.909Z,5.53
2019-03-09T04:00:10.998Z,4.63
2019-03-09T04:02:41.487Z,4.80
2019-03-09T04:05:11.685Z,5.08
2019-03-09T04:07:42.151Z,5.27
2019-03-09T04:10:12.877Z,4.63
2019-03-09T04:12:43.748Z,5.17
2019-03-09T04:15:14.619Z,4.77
2019-03-09T04:17:45.160Z,4.20
2019-03-09T04:20:15.630Z,3.70
2019-03-09T04:22:45.849Z,3.77
2019-03-09T04:25:16.219Z,3.30
2019-03-09T04:27:46.476Z,4.00
2019-03-09T04:30:16.772Z,3.95
2019-03-09T04:32:52.536Z,4.00
2019-03-09T04:35:30.076Z,3.33
2019-03-09T04:38:00.357Z,3.00
2019-03-09T04:40:30.524Z,3.50
2019-03-09T04:43:00.780Z,3.17
2019-03-09T04:45:31.003Z,2.60
2019-03-09T04:48:01.233Z,3.90
2019-03-09T04:50:31.632Z,5.13
2019-03-09T04:53:02.179Z,3.13
2019-03-09T04:55:32.539Z,4.50
2019-03-09T04:58:03.002Z,3.30
2019-03-09T05:00:35.075Z,4.67
2019-03-09T05:03:05.366Z,2.57
2019-03-09T05:05:35.652Z,3.63
2019-03-09T05:08:12.790Z,4.20
2019-03-09T05:11:00.295Z,4.00
2019-03-09T05:14:02.609Z,3.37
2019-03-09T05:16:32.832Z,3.40
2019-03-09T05:19:03.137Z,4.15
2019-03-09T05:21:33.342Z,5.07
2019-03-09T05:24:03.593Z,3.90
2019-03-09T05:26:36.643Z,5.43
2019-03-09T05:29:06.938Z,4.23
2019-03-09T05:31:40.120Z,4.20
2019-03-09T05:34:10.346Z,4.97
2019-03-09T05:36:41.708Z,3.67
2019-03-09T05:39:12.021Z,3.98
2019-03-09T05:41:42.402Z,4.03
2019-03-09T05:44:12.539Z,3.83
2019-03-09T05:46:42.725Z,3.67
2019-03-09T05:49:12.988Z,4.10
2019-03-09T05:51:43.211Z,3.40
2019-03-09T05:54:13.308Z,3.98
2019-03-09T05:56:43.960Z,5.33
2019-03-09T05:59:14.494Z,4.62
2019-03-09T06:01:45.184Z,4.20
2019-03-09T06:04:15.950Z,3.27
2019-03-09T06:06:46.578Z,4.13
2019-03-09T06:09:17.089Z,4.35
2019-03-09T06:11:47.601Z,4.30
2019-03-09T06:14:18.031Z,3.23
2019-03-09T06:16:48.391Z,5.00
2019-03-09T06:19:18.881Z,4.12
2019-03-09T06:21:49.427Z,3.93
2019-03-09T06:24:20.034Z,3.40
2019-03-09T06:26:50.679Z,4.03
2019-03-09T06:29:22.256Z,4.17
2019-03-09T06:32:46.914Z,4.40
2019-03-09T06:35:17.459Z,4.05
2019-03-09T06:37:55.851Z,3.03
2019-03-09T06:40:26.333Z,2.72
2019-03-09T06:42:56.745Z,3.63
2019-03-09T06:45:27.153Z,4.07
2019-03-09T06:47:57.603Z,3.50
2019-03-09T06:50:28.014Z,3.80
2019-03-09T06:52:58.618Z,3.50
2019-03-09T06:55:31.626Z,4.37
2019-03-09T06:58:02.067Z,3.33
2019-03-09T07:00:36.173Z,3.73
2019-03-09T07:03:07.854Z,4.12
2019-03-09T07:05:38.045Z,3.73
2019-03-09T07:08:08.247Z,4.67
2019-03-09T07:10:40.667Z,4.07
2019-03-09T07:13:11.037Z,4.28
2019-03-09T07:15:44.014Z,3.60
2019-03-09T07:18:32.921Z,3.80
2019-03-09T07:21:03.111Z,3.53
2019-03-09T07:23:33.378Z,3.20
2019-03-09T07:26:03.611Z,4.10
2019-03-09T07:28:33.753Z,2.63
2019-03-09T07:31:04.044Z,3.17
2019-03-09T07:33:34.275Z,4.00
2019-03-09T07:36:04.633Z,3.67
2019-03-09T07:38:34.929Z,4.30
2019-03-09T07:41:05.185Z,3.50
2019-03-09T07:43:35.272Z,4.43
2019-03-09T07:46:05.531Z,4.47
2019-03-09T07:48:35.778Z,3.70
2019-03-09T07:51:06.758Z,3.87
2019-03-09T07:53:37.072Z,4.60
2019-03-09T07:56:07.293Z,4.20
2019-03-09T07:58:37.548Z,4.97
2019-03-09T08:01:08.958Z,4.60
2019-03-09T08:03:41.937Z,4.40
2019-03-09T08:06:12.328Z,3.27
2019-03-09T08:08:42.420Z,3.50
2019-03-09T08:11:12.700Z,4.53
2019-03-09T08:13:43.120Z,4.27
2019-03-09T08:16:13.455Z,3.67
2019-03-09T08:18:45.270Z,3.60
2019-03-09T08:21:15.591Z,4.12
2019-03-09T08:23:45.812Z,4.10
2019-03-09T08:26:16.363Z,3.97
2019-03-09T08:28:46.523Z,4.17
2019-03-09T08:31:16.702Z,4.05
2019-03-09T08:33:46.962Z,3.73
2019-03-09T08:36:17.310Z,3.75
2019-03-09T08:38:47.432Z,4.33
2019-03-09T08:41:17.607Z,3.83
2019-03-09T08:43:47.855Z,3.05
2019-03-09T08:46:18.126Z,4.28
2019-03-09T08:48:48.365Z,3.00
2019-03-09T08:51:18.659Z,3.63
2019-03-09T08:53:48.759Z,3.27
2019-03-09T08:56:19.006Z,3.62
2019-03-09T08:58:49.170Z,2.90
2019-03-09T09:01:19.372Z,3.43
2019-03-09T09:03:49.614Z,2.90
2019-03-09T09:06:29.236Z,3.60
2019-03-09T09:08:59.589Z,3.70
2019-03-09T09:11:30.378Z,4.40
2019-03-09T09:16:29.411Z,3.20
2019-03-09T09:19:01.456Z,3.37
2019-03-09T09:21:33.888Z,2.60
2019-03-09T09:24:04.241Z,3.03
2019-03-09T09:26:34.737Z,3.87
2019-03-09T09:29:05.092Z,3.23
2019-03-09T09:31:35.360Z,2.67
2019-03-09T09:34:05.757Z,3.23
2019-03-09T09:36:36.636Z,2.90
2019-03-09T09:39:09.271Z,2.17
2019-03-09T09:41:39.526Z,3.13
2019-03-09T09:44:09.842Z,3.43
2019-03-09T09:46:40.038Z,3.77
2019-03-09T09:49:10.191Z,3.47
2019-03-09T09:51:40.445Z,3.30
2019-03-09T09:54:10.816Z,3.13
2019-03-09T09:56:41.004Z,2.85
2019-03-09T09:59:11.239Z,3.25
2019-03-09T10:01:41.498Z,3.17
2019-03-09T10:04:11.694Z,4.33
2019-03-09T10:06:41.919Z,2.73
2019-03-09T10:09:16.609Z,2.55
2019-03-09T10:11:46.995Z,3.07
2019-03-09T10:14:17.236Z,3.08
2019-03-09T10:16:50.060Z,2.80
2019-03-09T10:19:20.347Z,2.98
2019-03-09T10:21:50.589Z,3.07
2019-03-09T10:24:20.704Z,3.00
2019-03-09T10:26:50.885Z,3.27
2019-03-09T10:29:21.128Z,2.50
2019-03-09T10:31:51.306Z,3.23
2019-03-09T10:34:21.450Z,2.98
2019-03-09T10:36:51.802Z,2.90
2019-03-09T10:39:22.486Z,3.27
2019-03-09T10:41:52.636Z,2.93
2019-03-09T10:44:22.844Z,3.37
2019-03-09T10:46:53.172Z,2.67
2019-03-09T10:49:23.385Z,3.15
2019-03-09T10:51:53.561Z,3.33
2019-03-09T10:54:23.807Z,2.83
2019-03-09T10:56:54.038Z,2.43
2019-03-09T10:59:24.296Z,3.70
2019-03-09T11:01:54.545Z,2.80
2019-03-09T11:04:27.839Z,3.10
2019-03-09T11:06:56.683Z,3.07
2019-03-09T11:09:26.909Z,3.17
2019-03-09T11:11:57.133Z,3.63
2019-03-09T11:14:27.263Z,2.60
2019-03-09T11:16:57.639Z,3.37
2019-03-09T11:19:28.309Z,2.90
2019-03-09T11:21:58.486Z,3.40
2019-03-09T11:24:28.736Z,3.30
2019-03-09T11:26:58.853Z,3.17
2019-03-09T11:29:29.065Z,3.77
2019-03-09T11:31:59.324Z,3.13
2019-03-09T11:34:29.628Z,2.80
2019-03-09T11:36:59.887Z,2.90
2019-03-09T11:39:30.187Z,3.03
2019-03-09T11:42:00.436Z,3.10
2019-03-09T11:44:30.617Z,2.80
2019-03-09T11:47:01.035Z,2.50
2019-03-09T11:49:31.232Z,3.53
2019-03-09T11:52:01.462Z,3.10
2019-03-09T11:54:31.772Z,2.90
2019-03-09T11:57:02.083Z,3.80
2019-03-09T11:59:32.615Z,2.60
2019-03-09T12:02:02.932Z,3.80
2019-03-09T12:04:33.078Z,3.50
2019-03-09T12:07:03.377Z,2.80
2019-03-09T12:09:33.679Z,3.27
2019-03-09T12:12:04.947Z,3.03
2019-03-09T12:14:35.223Z,2.77
2019-03-09T12:17:12.762Z,3.20
2019-03-09T12:19:37.493Z,2.90
2019-03-09T12:22:07.662Z,3.50
2019-03-09T12:24:37.977Z,3.53
2019-03-09T12:27:08.407Z,3.30
2019-03-09T12:29:38.688Z,3.13
2019-03-09T12:32:09.033Z,3.83
2019-03-09T12:34:39.322Z,4.13
2019-03-09T12:37:09.535Z,3.77
2019-03-09T12:39:39.775Z,3.70
2019-03-09T12:42:09.990Z,3.57
2019-03-09T12:44:40.308Z,3.83
2019-03-09T12:47:10.576Z,3.43
2019-03-09T12:49:40.841Z,3.57
2019-03-09T12:52:11.100Z,3.52
2019-03-09T12:54:41.359Z,3.23
2019-03-09T12:57:11.488Z,3.70
2019-03-09T12:59:43.816Z,3.77
2019-03-09T13:02:14.117Z,3.50
2019-03-09T13:04:44.329Z,3.10
2019-03-09T13:07:14.655Z,2.58
2019-03-09T13:09:44.721Z,2.97
2019-03-09T13:12:14.971Z,3.40
2019-03-09T13:14:45.180Z,3.37
2019-03-09T13:17:15.463Z,2.80
2019-03-09T13:19:45.609Z,3.83
2019-03-09T13:22:15.893Z,2.93
2019-03-09T13:24:46.266Z,4.67
2019-03-09T13:27:16.429Z,2.83
2019-03-09T13:29:46.696Z,3.30
2019-03-09T13:32:16.928Z,2.83
2019-03-09T13:34:49.193Z,3.40
2019-03-09T13:37:19.184Z,3.05
2019-03-09T13:39:49.478Z,2.37
2019-03-09T13:42:19.690Z,2.70
2019-03-09T13:44:51.835Z,2.90
2019-03-09T13:47:21.926Z,3.73
2019-03-09T13:49:52.208Z,4.07
2019-03-09T13:52:22.332Z,3.97
2019-03-09T13:54:52.628Z,4.70
2019-03-09T13:57:22.881Z,3.77
2019-03-09T13:59:53.140Z,4.07
2019-03-09T14:02:23.385Z,4.13
2019-03-09T14:04:53.782Z,3.20
2019-03-09T14:07:24.051Z,2.42
2019-03-09T14:09:54.250Z,1.87
2019-03-09T14:12:24.541Z,2.27
2019-03-09T14:14:59.288Z,2.60
2019-03-09T14:17:30.758Z,2.23
2019-03-09T14:20:01.045Z,1.20
2019-03-09T14:22:31.410Z,1.50
2019-03-09T14:25:02.635Z,1.67
2019-03-09T14:27:32.866Z,2.23
2019-03-09T14:30:03.251Z,1.90
2019-03-09T14:32:34.387Z,1.87
2019-03-09T14:35:05.251Z,2.67
2019-03-09T14:37:35.546Z,2.93
2019-03-09T14:40:07.908Z,1.93
2019-03-09T14:42:38.929Z,3.73
2019-03-09T14:45:13.875Z,4.10
2019-03-09T14:47:44.214Z,3.90
2019-03-09T14:50:16.123Z,4.23
2019-03-09T14:52:46.419Z,5.63
2019-03-09T14:55:16.734Z,4.90
2019-03-09T14:57:47.061Z,4.90
2019-03-09T15:00:22.336Z,4.43
2019-03-09T15:02:52.830Z,4.77
2019-03-09T15:05:23.316Z,5.63
2019-03-09T15:07:53.503Z,6.17
2019-03-09T15:10:23.687Z,4.83
2019-03-09T15:12:53.959Z,4.97
2019-03-09T15:15:24.234Z,4.37
2019-03-09T15:17:54.862Z,4.57
2019-03-09T15:20:25.295Z,4.10
2019-03-09T15:22:55.640Z,3.50
2019-03-09T15:25:25.821Z,3.33
2019-03-09T15:27:56.135Z,2.42
2019-03-09T15:30:26.270Z,2.07
2019-03-09T15:32:56.544Z,1.37
2019-03-09T15:35:26.741Z,1.50
2019-03-09T15:37:56.951Z,1.20
2019-03-09T15:40:27.407Z,1.33
2019-03-09T15:42:57.665Z,1.10
2019-03-09T15:45:27.941Z,1.90
2019-03-09T15:48:00.749Z,1.40
2019-03-09T15:50:30.998Z,1.27
2019-03-09T15:53:02.903Z,1.37
2019-03-09T15:55:33.314Z,0.88
2019-03-09T15:58:03.655Z,1.40
2019-03-09T16:00:33.964Z,1.20
2019-03-09T16:03:04.391Z,1.20
2019-03-09T16:05:34.705Z,1.20
2019-03-09T16:08:05.045Z,1.20
2019-03-09T16:10:35.452Z,1.63
2019-03-09T16:13:06.969Z,1.53
2019-03-09T16:15:37.160Z,1.20
2019-03-09T16:18:07.417Z,1.13
2019-03-09T16:20:37.753Z,0.93
2019-03-09T16:23:08.072Z,1.77
2019-03-09T16:25:38.331Z,1.20
2019-03-09T16:28:08.585Z,0.97
2019-03-09T16:30:38.708Z,0.90
2019-03-09T16:33:09.114Z,1.20
2019-03-09T16:35:40.812Z,1.00
2019-03-09T16:38:11.201Z,1.22
2019-03-09T16:40:41.599Z,1.30
2019-03-09T16:43:12.009Z,1.27
2019-03-09T16:45:42.283Z,1.40
2019-03-09T16:48:12.659Z,1.70
2019-03-09T16:50:43.033Z,1.30
2019-03-09T16:53:13.277Z,1.37
2019-03-09T16:55:43.569Z,1.47
2019-03-09T16:58:13.809Z,1.50
2019-03-09T17:00:43.974Z,1.23
2019-03-09T17:03:14.122Z,1.40
2019-03-09T17:05:44.574Z,1.30
2019-03-09T17:08:22.427Z,1.57
2019-03-09T17:10:52.761Z,1.20
2019-03-09T17:13:23.124Z,2.63
2019-03-09T17:15:53.352Z,1.40
2019-03-09T17:18:23.582Z,1.40
2019-03-09T17:20:56.793Z,1.50
2019-03-09T17:23:27.244Z,1.87
2019-03-09T17:25:57.881Z,1.60
2019-03-09T17:28:28.107Z,1.50
2019-03-09T17:30:58.315Z,1.73
2019-03-09T17:33:28.478Z,1.50
2019-03-09T17:35:58.653Z,2.20
2019-03-09T17:38:28.864Z,1.70
2019-03-09T17:41:01.424Z,1.70
2019-03-09T17:43:31.525Z,1.57
2019-03-09T17:46:01.679Z,1.23
2019-03-09T17:48:32.231Z,2.13
2019-03-09T17:51:02.350Z,1.50
2019-03-09T17:53:32.414Z,1.20
2019-03-09T17:56:02.641Z,2.00
2019-03-09T17:58:32.804Z,1.97
2019-03-09T18:01:02.854Z,1.50
2019-03-09T18:03:33.148Z,1.90
2019-03-09T18:06:03.480Z,2.57
2019-03-09T18:08:33.630Z,1.70
2019-03-09T18:11:06.705Z,1.87
2019-03-09T18:13:36.884Z,1.70
2019-03-09T18:16:07.170Z,1.73
2019-03-09T18:18:37.453Z,1.67
2019-03-09T18:21:08.092Z,2.05
2019-03-09T18:23:38.348Z,2.60
2019-03-09T18:26:08.547Z,1.83
2019-03-09T18:28:38.774Z,2.17
2019-03-09T18:31:08.888Z,2.20
2019-03-09T18:33:39.080Z,1.93
2019-03-09T18:36:09.256Z,1.57
2019-03-09T18:38:39.370Z,1.80
2019-03-09T18:41:09.519Z,1.90
2019-03-09T18:43:39.731Z,1.80
2019-03-09T18:46:09.950Z,2.00
2019-03-09T18:48:40.140Z,1.93
2019-03-09T18:51:10.345Z,2.00
2019-03-09T18:53:40.441Z,1.73
2019-03-09T18:56:10.657Z,2.30
2019-03-09T18:58:41.143Z,1.93
2019-03-09T19:01:11.628Z,2.42
2019-03-09T19:03:42.629Z,3.07
2019-03-09T19:06:13.204Z,2.23
2019-03-09T19:08:43.702Z,2.10
2019-03-09T19:11:14.632Z,1.77
2019-03-09T19:13:45.305Z,2.13
2019-03-09T19:16:15.768Z,2.43
2019-03-09T19:21:31.372Z,3.30
2019-03-09T19:24:01.499Z,2.23
2019-03-09T19:26:31.721Z,2.50
2019-03-09T19:29:01.991Z,3.73
2019-03-09T19:31:32.501Z,2.73
2019-03-09T19:34:03.043Z,3.27
2019-03-09T19:36:33.576Z,3.03
2019-03-09T19:39:04.784Z,3.30
2019-03-09T19:41:35.508Z,2.67
2019-03-09T19:44:07.194Z,2.83
2019-03-09T19:46:37.650Z,2.30
2019-03-09T19:49:08.073Z,2.37
2019-03-09T19:51:38.495Z,2.87
2019-03-09T19:54:08.997Z,2.10
2019-03-09T19:56:39.448Z,2.10
2019-03-09T19:59:09.854Z,2.40
2019-03-09T20:01:40.289Z,2.87
2019-03-09T20:04:10.660Z,2.50
2019-03-09T20:06:42.055Z,2.30
2019-03-09T20:09:12.596Z,2.83
2019-03-09T20:11:42.962Z,2.50
2019-03-09T20:14:13.380Z,2.87
2019-03-09T20:16:44.284Z,2.57
2019-03-09T20:19:14.813Z,2.23
2019-03-09T20:21:45.992Z,2.47
2019-03-09T20:24:16.750Z,2.47
2019-03-09T20:26:50.241Z,2.67
2019-03-09T20:29:20.600Z,2.80
2019-03-09T20:31:51.129Z,4.77
2019-03-09T20:34:21.572Z,4.33
2019-03-09T20:36:52.103Z,2.63
2019-03-09T20:39:22.650Z,2.40
2019-03-09T20:41:53.158Z,2.93
2019-03-09T20:44:25.836Z,3.37
2019-03-09T20:46:56.479Z,3.40
2019-03-09T20:49:27.746Z,2.63
2019-03-09T20:51:58.660Z,2.90
2019-03-09T20:54:29.205Z,3.23
2019-03-09T20:56:59.830Z,2.93
2019-03-09T20:59:30.414Z,3.33
2019-03-09T21:02:00.979Z,3.40
2019-03-09T21:04:31.376Z,3.87
2019-03-09T21:07:01.832Z,3.20
2019-03-09T21:09:32.743Z,4.10
2019-03-09T21:12:03.992Z,4.37
2019-03-09T21:14:34.465Z,3.77
2019-03-09T21:17:05.164Z,4.77
2019-03-09T21:19:35.634Z,5.33
2019-03-09T21:22:07.360Z,4.17
2019-03-09T21:24:37.901Z,3.30
2019-03-09T21:27:08.838Z,4.27
2019-03-09T21:32:08.496Z,3.83
2019-03-09T21:34:38.879Z,3.90
2019-03-09T21:37:09.570Z,3.93
2019-03-09T21:39:40.369Z,3.62
2019-03-09T21:42:10.909Z,4.00
2019-03-09T21:44:41.435Z,4.13
2019-03-09T21:47:11.929Z,3.72
2019-03-09T21:49:42.774Z,4.00
2019-03-09T21:52:13.397Z,3.40
2019-03-09T21:54:44.566Z,3.97
2019-03-09T21:57:15.891Z,4.00
2019-03-09T21:59:46.536Z,3.43
2019-03-09T22:02:16.999Z,3.72
2019-03-09T22:04:47.553Z,3.50
2019-03-09T22:07:17.839Z,3.60
2019-03-09T22:09:47.973Z,3.73
2019-03-09T22:12:18.055Z,4.17
2019-03-09T22:14:48.368Z,4.00
2019-03-09T22:17:18.695Z,4.30
2019-03-09T22:19:48.889Z,4.13
2019-03-09T22:22:19.073Z,3.10
2019-03-09T22:24:49.271Z,3.83
2019-03-09T22:27:19.494Z,3.90
2019-03-09T22:29:49.829Z,3.37
2019-03-09T22:32:20.049Z,3.30
2019-03-09T22:34:50.162Z,4.97
2019-03-09T22:37:20.416Z,3.17
2019-03-09T22:39:50.569Z,3.03
2019-03-09T22:42:20.758Z,3.20
2019-03-09T22:44:50.945Z,3.40
2019-03-09T22:47:21.225Z,3.73
2019-03-09T22:49:51.514Z,3.07
2019-03-09T22:52:21.661Z,3.67
2019-03-09T22:54:51.814Z,3.63
2019-03-09T22:57:22.050Z,3.52
2019-03-09T22:59:52.478Z,3.63
2019-03-09T23:02:22.721Z,3.10
2019-03-09T23:04:53.033Z,4.17
2019-03-09T23:07:23.338Z,3.05
2019-03-09T23:09:53.513Z,2.70
2019-03-09T23:12:23.680Z,3.93
2019-03-09T23:14:53.881Z,3.87
2019-03-09T23:17:24.080Z,3.37
2019-03-09T23:19:54.220Z,3.07
2019-03-09T23:22:24.359Z,2.80
2019-03-09T23:24:54.545Z,2.53
2019-03-09T23:27:24.662Z,3.30
2019-03-09T23:29:54.862Z,2.83
2019-03-09T23:32:25.068Z,3.40
2019-03-09T23:34:55.282Z,3.07
2019-03-09T23:37:25.407Z,2.60
2019-03-09T23:39:55.600Z,2.97
2019-03-09T23:42:25.672Z,3.63
2019-03-09T23:44:55.795Z,2.80
2019-03-09T23:47:25.946Z,3.10
2019-03-09T23:49:56.175Z,2.37
2019-03-09T23:52:26.327Z,3.70
2019-03-09T23:54:58.014Z,3.17
2019-03-09T23:57:28.211Z,3.75
2019-03-09T23:59:58.431Z,3.50
